sensor_id;sensor_type;location;lat;lon;timestamp;P1;durP1;ratioP1;P2;durP2;ratioP2
43771;SDS011;59066;54.782;32.024;2022-09-21T00:01:42;14.88;;;11.23;;
43771;SDS011;59066;54.782;32.024;2022-09-21T00:04:11;14.80;;;12.45;;
43771;SDS011;59066;54.782;32.024;2022-09-21T00:06:39;16.88;;;12.38;;
43771;SDS011;59066;54.782;32.024;2022-09-21T00:09:06;19.95;;;12.20;;
43771;SDS011;59066;54.782;32.024;2022-09-21T00:11:35;18.30;;;12.20;;
43771;SDS011;59066;54.782;32.024;2022-09-21T00:14:04;16.55;;;12.18;;
43771;SDS011;59066;54.782;32.024;2022-09-21T00:16:34;18.42;;;13.38;;
43771;SDS011;59066;54.782;32.024;2022-09-21T00:19:10;16.35;;;11.75;;
43771;SDS011;59066;54.782;32.024;2022-09-21T00:21:37;17.63;;;12.75;;
43771;SDS011;59066;54.782;32.024;2022-09-21T00:24:05;18.38;;;11.70;;
43771;SDS011;59066;54.782;32.024;2022-09-21T00:26:33;15.73;;;12.02;;
43771;SDS011;59066;54.782;32.024;2022-09-21T00:29:01;18.50;;;12.90;;
43771;SDS011;59066;54.782;32.024;2022-09-21T00:31:30;14.35;;;11.23;;
43771;SDS011;59066;54.782;32.024;2022-09-21T00:33:58;16.42;;;12.38;;
43771;SDS011;59066;54.782;32.024;2022-09-21T00:36:26;21.60;;;12.57;;
43771;SDS011;59066;54.782;32.024;2022-09-21T00:38:55;20.85;;;12.90;;
43771;SDS011;59066;54.782;32.024;2022-09-21T00:41:24;18.02;;;12.48;;
43771;SDS011;59066;54.782;32.024;2022-09-21T00:46:42;16.38;;;11.85;;
43771;SDS011;59066;54.782;32.024;2022-09-21T00:49:11;15.70;;;11.60;;
43771;SDS011;59066;54.782;32.024;2022-09-21T00:51:39;19.02;;;12.25;;
43771;SDS011;59066;54.782;32.024;2022-09-21T00:54:08;18.83;;;12.32;;
43771;SDS011;59066;54.782;32.024;2022-09-21T00:56:41;19.23;;;11.93;;
43771;SDS011;59066;54.782;32.024;2022-09-21T00:59:10;17.92;;;11.25;;
43771;SDS011;59066;54.782;32.024;2022-09-21T01:01:39;16.55;;;11.27;;
43771;SDS011;59066;54.782;32.024;2022-09-21T01:04:09;16.33;;;12.15;;
43771;SDS011;59066;54.782;32.024;2022-09-21T01:06:37;18.58;;;12.65;;
43771;SDS011;59066;54.782;32.024;2022-09-21T01:09:05;18.33;;;12.85;;
43771;SDS011;59066;54.782;32.024;2022-09-21T01:11:38;17.33;;;13.07;;
43771;SDS011;59066;54.782;32.024;2022-09-21T01:17:06;19.88;;;13.23;;
43771;SDS011;59066;54.782;32.024;2022-09-21T01:31:04;20.73;;;13.32;;
43771;SDS011;59066;54.782;32.024;2022-09-21T01:33:43;20.23;;;13.65;;
43771;SDS011;59066;54.782;32.024;2022-09-21T01:36:15;18.10;;;13.80;;
43771;SDS011;59066;54.782;32.024;2022-09-21T01:38:47;18.92;;;13.68;;
43771;SDS011;59066;54.782;32.024;2022-09-21T01:41:22;24.35;;;13.68;;
43771;SDS011;59066;54.782;32.024;2022-09-21T01:43:53;20.35;;;13.70;;
43771;SDS011;59066;54.782;32.024;2022-09-21T01:46:29;21.75;;;14.38;;
43771;SDS011;59066;54.782;32.024;2022-09-21T01:49:00;23.73;;;15.07;;
43771;SDS011;59066;54.782;32.024;2022-09-21T01:51:44;20.90;;;14.30;;
43771;SDS011;59066;54.782;32.024;2022-09-21T01:54:22;23.35;;;14.90;;
43771;SDS011;59066;54.782;32.024;2022-09-21T01:57:05;24.20;;;15.00;;
43771;SDS011;59066;54.782;32.024;2022-09-21T01:59:50;29.10;;;17.13;;
43771;SDS011;59066;54.782;32.024;2022-09-21T02:02:27;25.38;;;15.35;;
43771;SDS011;59066;54.782;32.024;2022-09-21T02:05:17;22.88;;;14.20;;
43771;SDS011;59066;54.782;32.024;2022-09-21T02:07:47;24.92;;;15.93;;
43771;SDS011;59066;54.782;32.024;2022-09-21T02:10:18;26.27;;;15.10;;
43771;SDS011;59066;54.782;32.024;2022-09-21T02:12:57;27.00;;;14.38;;
43771;SDS011;59066;54.782;32.024;2022-09-21T02:18:26;23.40;;;15.23;;
43771;SDS011;59066;54.782;32.024;2022-09-21T02:21:07;22.25;;;13.07;;
43771;SDS011;59066;54.782;32.024;2022-09-21T02:23:48;20.80;;;13.85;;
43771;SDS011;59066;54.782;32.024;2022-09-21T02:32:36;17.83;;;11.20;;
43771;SDS011;59066;54.782;32.024;2022-09-21T02:41:16;19.73;;;12.23;;
43771;SDS011;59066;54.782;32.024;2022-09-21T02:43:58;21.55;;;13.48;;
43771;SDS011;59066;54.782;32.024;2022-09-21T02:46:36;24.63;;;15.93;;
43771;SDS011;59066;54.782;32.024;2022-09-21T02:49:26;22.88;;;13.43;;
43771;SDS011;59066;54.782;32.024;2022-09-21T02:51:58;18.85;;;11.55;;
43771;SDS011;59066;54.782;32.024;2022-09-21T02:54:30;17.52;;;10.63;;
43771;SDS011;59066;54.782;32.024;2022-09-21T02:56:59;16.83;;;10.68;;
43771;SDS011;59066;54.782;32.024;2022-09-21T02:59:29;16.67;;;11.23;;
43771;SDS011;59066;54.782;32.024;2022-09-21T03:01:57;21.25;;;13.50;;
43771;SDS011;59066;54.782;32.024;2022-09-21T03:04:25;22.00;;;12.82;;
43771;SDS011;59066;54.782;32.024;2022-09-21T03:06:53;23.15;;;13.57;;
43771;SDS011;59066;54.782;32.024;2022-09-21T03:09:23;23.60;;;13.10;;
43771;SDS011;59066;54.782;32.024;2022-09-21T03:11:50;24.60;;;13.43;;
43771;SDS011;59066;54.782;32.024;2022-09-21T03:14:18;26.85;;;12.48;;
43771;SDS011;59066;54.782;32.024;2022-09-21T03:16:45;27.15;;;12.50;;
43771;SDS011;59066;54.782;32.024;2022-09-21T03:19:12;34.15;;;14.90;;
43771;SDS011;59066;54.782;32.024;2022-09-21T03:21:41;27.63;;;14.68;;
43771;SDS011;59066;54.782;32.024;2022-09-21T03:24:10;33.67;;;15.90;;
43771;SDS011;59066;54.782;32.024;2022-09-21T03:26:37;34.13;;;16.83;;
43771;SDS011;59066;54.782;32.024;2022-09-21T03:29:05;32.97;;;16.58;;
43771;SDS011;59066;54.782;32.024;2022-09-21T03:31:32;46.30;;;17.92;;
43771;SDS011;59066;54.782;32.024;2022-09-21T03:34:00;27.45;;;15.50;;
43771;SDS011;59066;54.782;32.024;2022-09-21T03:36:27;29.05;;;14.85;;
43771;SDS011;59066;54.782;32.024;2022-09-21T03:38:54;29.92;;;14.13;;
43771;SDS011;59066;54.782;32.024;2022-09-21T03:41:22;26.10;;;12.73;;
43771;SDS011;59066;54.782;32.024;2022-09-21T03:43:49;28.85;;;13.80;;
43771;SDS011;59066;54.782;32.024;2022-09-21T03:46:16;28.15;;;13.35;;
43771;SDS011;59066;54.782;32.024;2022-09-21T03:48:44;27.08;;;12.90;;
43771;SDS011;59066;54.782;32.024;2022-09-21T03:51:13;26.55;;;12.98;;
43771;SDS011;59066;54.782;32.024;2022-09-21T03:53:41;26.67;;;13.20;;
43771;SDS011;59066;54.782;32.024;2022-09-21T03:56:08;23.30;;;12.93;;
43771;SDS011;59066;54.782;32.024;2022-09-21T03:58:36;24.23;;;11.90;;
43771;SDS011;59066;54.782;32.024;2022-09-21T04:01:03;29.13;;;15.40;;
43771;SDS011;59066;54.782;32.024;2022-09-21T04:03:31;20.88;;;13.13;;
43771;SDS011;59066;54.782;32.024;2022-09-21T04:05:58;46.60;;;41.15;;
43771;SDS011;59066;54.782;32.024;2022-09-21T04:08:54;23.15;;;14.23;;
43771;SDS011;59066;54.782;32.024;2022-09-21T04:11:22;23.83;;;13.73;;
43771;SDS011;59066;54.782;32.024;2022-09-21T04:13:50;25.27;;;12.85;;
43771;SDS011;59066;54.782;32.024;2022-09-21T04:16:23;31.83;;;15.60;;
43771;SDS011;59066;54.782;32.024;2022-09-21T04:18:58;21.50;;;14.02;;
43771;SDS011;59066;54.782;32.024;2022-09-21T04:21:25;21.52;;;13.40;;
43771;SDS011;59066;54.782;32.024;2022-09-21T04:23:53;23.33;;;13.05;;
43771;SDS011;59066;54.782;32.024;2022-09-21T04:28:52;25.38;;;13.98;;
43771;SDS011;59066;54.782;32.024;2022-09-21T04:31:21;26.38;;;16.15;;
43771;SDS011;59066;54.782;32.024;2022-09-21T04:33:50;20.13;;;13.85;;
43771;SDS011;59066;54.782;32.024;2022-09-21T04:36:19;25.90;;;13.63;;
43771;SDS011;59066;54.782;32.024;2022-09-21T04:38:53;27.42;;;13.02;;
43771;SDS011;59066;54.782;32.024;2022-09-21T04:41:21;20.75;;;13.80;;
43771;SDS011;59066;54.782;32.024;2022-09-21T04:43:48;23.08;;;12.73;;
43771;SDS011;59066;54.782;32.024;2022-09-21T04:46:35;22.65;;;15.18;;
43771;SDS011;59066;54.782;32.024;2022-09-21T04:49:02;22.92;;;13.90;;
43771;SDS011;59066;54.782;32.024;2022-09-21T04:51:30;31.10;;;16.60;;
43771;SDS011;59066;54.782;32.024;2022-09-21T04:53:57;24.50;;;15.55;;
43771;SDS011;59066;54.782;32.024;2022-09-21T04:56:25;30.13;;;19.67;;
43771;SDS011;59066;54.782;32.024;2022-09-21T04:58:52;26.90;;;16.60;;
43771;SDS011;59066;54.782;32.024;2022-09-21T05:01:20;23.60;;;15.23;;
43771;SDS011;59066;54.782;32.024;2022-09-21T05:03:47;24.95;;;14.27;;
43771;SDS011;59066;54.782;32.024;2022-09-21T05:06:15;26.08;;;13.75;;
43771;SDS011;59066;54.782;32.024;2022-09-21T05:08:42;21.33;;;13.02;;
43771;SDS011;59066;54.782;32.024;2022-09-21T05:11:28;28.20;;;13.02;;
43771;SDS011;59066;54.782;32.024;2022-09-21T05:13:56;15.38;;;10.68;;
43771;SDS011;59066;54.782;32.024;2022-09-21T05:16:23;17.42;;;11.25;;
43771;SDS011;59066;54.782;32.024;2022-09-21T05:18:51;35.95;;;21.15;;
43771;SDS011;59066;54.782;32.024;2022-09-21T05:21:20;22.65;;;13.95;;
43771;SDS011;59066;54.782;32.024;2022-09-21T05:23:48;15.52;;;10.10;;
43771;SDS011;59066;54.782;32.024;2022-09-21T05:26:15;15.25;;;11.65;;
43771;SDS011;59066;54.782;32.024;2022-09-21T05:28:43;13.57;;;9.75;;
43771;SDS011;59066;54.782;32.024;2022-09-21T05:33:55;16.52;;;11.23;;
43771;SDS011;59066;54.782;32.024;2022-09-21T05:39:18;27.90;;;13.20;;
43771;SDS011;59066;54.782;32.024;2022-09-21T05:41:46;19.33;;;12.88;;
43771;SDS011;59066;54.782;32.024;2022-09-21T05:44:14;22.27;;;12.85;;
43771;SDS011;59066;54.782;32.024;2022-09-21T05:46:42;22.67;;;12.13;;
43771;SDS011;59066;54.782;32.024;2022-09-21T05:49:25;21.58;;;11.80;;
43771;SDS011;59066;54.782;32.024;2022-09-21T05:52:51;19.63;;;11.02;;
43771;SDS011;59066;54.782;32.024;2022-09-21T06:03:41;19.23;;;13.88;;
43771;SDS011;59066;54.782;32.024;2022-09-21T06:06:09;27.42;;;17.70;;
43771;SDS011;59066;54.782;32.024;2022-09-21T06:08:36;31.45;;;18.45;;
43771;SDS011;59066;54.782;32.024;2022-09-21T06:11:03;21.50;;;12.60;;
43771;SDS011;59066;54.782;32.024;2022-09-21T06:13:31;17.67;;;10.13;;
43771;SDS011;59066;54.782;32.024;2022-09-21T06:16:02;18.45;;;10.02;;
43771;SDS011;59066;54.782;32.024;2022-09-21T06:18:30;22.65;;;14.95;;
43771;SDS011;59066;54.782;32.024;2022-09-21T06:20:57;11.65;;;9.20;;
43771;SDS011;59066;54.782;32.024;2022-09-21T06:23:24;15.93;;;8.63;;
43771;SDS011;59066;54.782;32.024;2022-09-21T06:25:52;20.67;;;9.70;;
43771;SDS011;59066;54.782;32.024;2022-09-21T06:28:24;13.82;;;8.85;;
43771;SDS011;59066;54.782;32.024;2022-09-21T06:30:52;9.88;;;7.47;;
43771;SDS011;59066;54.782;32.024;2022-09-21T06:33:20;15.82;;;8.57;;
43771;SDS011;59066;54.782;32.024;2022-09-21T06:35:53;11.88;;;7.63;;
43771;SDS011;59066;54.782;32.024;2022-09-21T06:41:27;19.38;;;8.20;;
43771;SDS011;59066;54.782;32.024;2022-09-21T06:43:54;18.08;;;7.43;;
43771;SDS011;59066;54.782;32.024;2022-09-21T06:46:22;14.52;;;7.20;;
43771;SDS011;59066;54.782;32.024;2022-09-21T06:48:50;11.90;;;7.10;;
43771;SDS011;59066;54.782;32.024;2022-09-21T06:51:17;16.73;;;9.15;;
43771;SDS011;59066;54.782;32.024;2022-09-21T06:53:46;17.77;;;7.85;;
43771;SDS011;59066;54.782;32.024;2022-09-21T06:56:19;13.15;;;7.47;;
43771;SDS011;59066;54.782;32.024;2022-09-21T06:58:46;35.00;;;10.15;;
43771;SDS011;59066;54.782;32.024;2022-09-21T07:01:14;25.52;;;9.38;;
43771;SDS011;59066;54.782;32.024;2022-09-21T07:03:42;16.33;;;9.15;;
43771;SDS011;59066;54.782;32.024;2022-09-21T07:06:10;22.98;;;12.13;;
43771;SDS011;59066;54.782;32.024;2022-09-21T07:08:40;19.27;;;10.45;;
43771;SDS011;59066;54.782;32.024;2022-09-21T07:11:28;17.83;;;9.23;;
43771;SDS011;59066;54.782;32.024;2022-09-21T07:13:55;17.05;;;9.45;;
43771;SDS011;59066;54.782;32.024;2022-09-21T07:16:24;18.98;;;10.40;;
43771;SDS011;59066;54.782;32.024;2022-09-21T07:18:58;25.45;;;10.25;;
43771;SDS011;59066;54.782;32.024;2022-09-21T07:21:39;27.83;;;13.82;;
43771;SDS011;59066;54.782;32.024;2022-09-21T07:24:06;24.45;;;11.85;;
43771;SDS011;59066;54.782;32.024;2022-09-21T07:26:37;18.92;;;11.98;;
43771;SDS011;59066;54.782;32.024;2022-09-21T07:29:05;21.13;;;11.65;;
43771;SDS011;59066;54.782;32.024;2022-09-21T07:31:32;19.25;;;12.57;;
43771;SDS011;59066;54.782;32.024;2022-09-21T07:34:07;17.80;;;9.98;;
43771;SDS011;59066;54.782;32.024;2022-09-21T07:36:34;18.15;;;10.18;;
43771;SDS011;59066;54.782;32.024;2022-09-21T07:39:02;14.65;;;9.30;;
43771;SDS011;59066;54.782;32.024;2022-09-21T07:41:52;28.00;;;9.57;;
43771;SDS011;59066;54.782;32.024;2022-09-21T07:44:19;18.20;;;8.68;;
43771;SDS011;59066;54.782;32.024;2022-09-21T07:46:48;18.75;;;9.50;;
43771;SDS011;59066;54.782;32.024;2022-09-21T07:49:15;21.83;;;10.60;;
43771;SDS011;59066;54.782;32.024;2022-09-21T07:51:43;25.27;;;12.25;;
43771;SDS011;59066;54.782;32.024;2022-09-21T07:54:11;13.73;;;8.40;;
43771;SDS011;59066;54.782;32.024;2022-09-21T07:56:38;15.73;;;7.97;;
43771;SDS011;59066;54.782;32.024;2022-09-21T07:59:06;15.90;;;7.78;;
43771;SDS011;59066;54.782;32.024;2022-09-21T08:01:35;11.48;;;7.47;;
43771;SDS011;59066;54.782;32.024;2022-09-21T08:04:04;11.10;;;6.68;;
43771;SDS011;59066;54.782;32.024;2022-09-21T08:06:34;12.93;;;6.18;;
43771;SDS011;59066;54.782;32.024;2022-09-21T08:09:06;27.35;;;16.73;;
43771;SDS011;59066;54.782;32.024;2022-09-21T08:11:34;14.80;;;8.13;;
43771;SDS011;59066;54.782;32.024;2022-09-21T08:14:03;14.70;;;8.15;;
43771;SDS011;59066;54.782;32.024;2022-09-21T08:16:30;12.05;;;10.65;;
43771;SDS011;59066;54.782;32.024;2022-09-21T08:19:03;16.67;;;13.23;;
43771;SDS011;59066;54.782;32.024;2022-09-21T08:21:31;25.35;;;16.13;;
43771;SDS011;59066;54.782;32.024;2022-09-21T08:24:05;24.13;;;21.50;;
43771;SDS011;59066;54.782;32.024;2022-09-21T08:26:33;21.13;;;16.38;;
43771;SDS011;59066;54.782;32.024;2022-09-21T08:29:00;10.88;;;9.82;;
43771;SDS011;59066;54.782;32.024;2022-09-21T08:31:28;15.38;;;8.10;;
43771;SDS011;59066;54.782;32.024;2022-09-21T08:33:56;16.63;;;10.23;;
43771;SDS011;59066;54.782;32.024;2022-09-21T08:36:24;17.15;;;8.57;;
43771;SDS011;59066;54.782;32.024;2022-09-21T08:38:51;17.30;;;9.15;;
43771;SDS011;59066;54.782;32.024;2022-09-21T08:44:17;14.85;;;8.23;;
43771;SDS011;59066;54.782;32.024;2022-09-21T08:47:05;10.85;;;6.95;;
43771;SDS011;59066;54.782;32.024;2022-09-21T08:49:39;17.23;;;8.80;;
43771;SDS011;59066;54.782;32.024;2022-09-21T08:52:12;10.27;;;6.97;;
43771;SDS011;59066;54.782;32.024;2022-09-21T08:57:50;12.52;;;6.18;;
43771;SDS011;59066;54.782;32.024;2022-09-21T09:00:18;25.15;;;7.32;;
43771;SDS011;59066;54.782;32.024;2022-09-21T09:13:26;9.85;;;6.32;;
43771;SDS011;59066;54.782;32.024;2022-09-21T09:25:32;13.38;;;7.30;;
43771;SDS011;59066;54.782;32.024;2022-09-21T09:30:45;12.65;;;6.80;;
43771;SDS011;59066;54.782;32.024;2022-09-21T09:33:19;9.80;;;6.28;;
43771;SDS011;59066;54.782;32.024;2022-09-21T09:35:59;12.07;;;5.93;;
43771;SDS011;59066;54.782;32.024;2022-09-21T09:38:37;27.63;;;7.25;;
43771;SDS011;59066;54.782;32.024;2022-09-21T09:41:21;12.65;;;6.68;;
43771;SDS011;59066;54.782;32.024;2022-09-21T09:47:04;7.05;;;5.25;;
43771;SDS011;59066;54.782;32.024;2022-09-21T09:52:24;14.73;;;6.85;;
43771;SDS011;59066;54.782;32.024;2022-09-21T09:54:51;10.13;;;5.00;;
43771;SDS011;59066;54.782;32.024;2022-09-21T09:57:30;10.85;;;5.22;;
43771;SDS011;59066;54.782;32.024;2022-09-21T10:00:01;13.48;;;5.38;;
43771;SDS011;59066;54.782;32.024;2022-09-21T10:02:51;7.45;;;4.13;;
43771;SDS011;59066;54.782;32.024;2022-09-21T10:10:52;7.57;;;3.92;;
43771;SDS011;59066;54.782;32.024;2022-09-21T10:21:18;4.55;;;4.03;;
43771;SDS011;59066;54.782;32.024;2022-09-21T10:23:51;5.65;;;3.88;;
43771;SDS011;59066;54.782;32.024;2022-09-21T10:26:19;5.43;;;4.05;;
43771;SDS011;59066;54.782;32.024;2022-09-21T10:29:15;7.03;;;4.20;;
43771;SDS011;59066;54.782;32.024;2022-09-21T10:34:35;10.02;;;5.35;;
43771;SDS011;59066;54.782;32.024;2022-09-21T10:37:22;11.65;;;6.10;;
43771;SDS011;59066;54.782;32.024;2022-09-21T10:42:43;6.45;;;4.38;;
43771;SDS011;59066;54.782;32.024;2022-09-21T10:45:13;7.55;;;4.15;;
43771;SDS011;59066;54.782;32.024;2022-09-21T10:47:49;8.98;;;6.40;;
43771;SDS011;59066;54.782;32.024;2022-09-21T10:50:40;6.32;;;5.47;;
43771;SDS011;59066;54.782;32.024;2022-09-21T10:55:41;9.43;;;6.38;;
43771;SDS011;59066;54.782;32.024;2022-09-21T10:58:30;10.55;;;6.57;;
43771;SDS011;59066;54.782;32.024;2022-09-21T11:01:09;8.48;;;6.00;;
43771;SDS011;59066;54.782;32.024;2022-09-21T11:03:44;8.15;;;6.75;;
43771;SDS011;59066;54.782;32.024;2022-09-21T11:14:59;6.43;;;5.25;;
43771;SDS011;59066;54.782;32.024;2022-09-21T11:17:50;8.32;;;5.45;;
43771;SDS011;59066;54.782;32.024;2022-09-21T11:20:54;10.68;;;5.55;;
43771;SDS011;59066;54.782;32.024;2022-09-21T11:26:22;8.32;;;5.95;;
43771;SDS011;59066;54.782;32.024;2022-09-21T11:37:37;9.75;;;5.88;;
43771;SDS011;59066;54.782;32.024;2022-09-21T11:40:37;11.43;;;6.30;;
43771;SDS011;59066;54.782;32.024;2022-09-21T11:51:29;8.32;;;5.50;;
43771;SDS011;59066;54.782;32.024;2022-09-21T11:57:00;8.88;;;5.45;;
43771;SDS011;59066;54.782;32.024;2022-09-21T12:00:32;7.03;;;4.93;;
43771;SDS011;59066;54.782;32.024;2022-09-21T12:06:15;7.47;;;5.40;;
43771;SDS011;59066;54.782;32.024;2022-09-21T12:12:35;5.53;;;3.53;;
43771;SDS011;59066;54.782;32.024;2022-09-21T12:22:41;5.10;;;3.42;;
43771;SDS011;59066;54.782;32.024;2022-09-21T12:27:59;6.53;;;3.83;;
43771;SDS011;59066;54.782;32.024;2022-09-21T12:30:51;5.88;;;3.90;;
43771;SDS011;59066;54.782;32.024;2022-09-21T12:36:36;9.25;;;7.28;;
43771;SDS011;59066;54.782;32.024;2022-09-21T12:44:42;5.90;;;3.60;;
43771;SDS011;59066;54.782;32.024;2022-09-21T12:50:33;5.90;;;3.90;;
43771;SDS011;59066;54.782;32.024;2022-09-21T13:07:50;14.68;;;8.63;;
43771;SDS011;59066;54.782;32.024;2022-09-21T13:12:55;6.32;;;4.53;;
43771;SDS011;59066;54.782;32.024;2022-09-21T13:15:31;8.25;;;5.68;;
43771;SDS011;59066;54.782;32.024;2022-09-21T13:18:39;5.15;;;3.22;;
43771;SDS011;59066;54.782;32.024;2022-09-21T13:21:17;7.30;;;4.03;;
43771;SDS011;59066;54.782;32.024;2022-09-21T13:26:56;13.73;;;7.93;;
43771;SDS011;59066;54.782;32.024;2022-09-21T13:29:34;9.48;;;5.40;;
43771;SDS011;59066;54.782;32.024;2022-09-21T13:34:38;5.85;;;3.53;;
43771;SDS011;59066;54.782;32.024;2022-09-21T13:44:57;3.47;;;2.50;;
43771;SDS011;59066;54.782;32.024;2022-09-21T13:47:45;5.30;;;3.17;;
43771;SDS011;59066;54.782;32.024;2022-09-21T13:50:26;4.25;;;3.22;;
43771;SDS011;59066;54.782;32.024;2022-09-21T13:52:59;3.28;;;2.42;;
43771;SDS011;59066;54.782;32.024;2022-09-21T13:55:30;3.95;;;2.60;;
43771;SDS011;59066;54.782;32.024;2022-09-21T13:58:00;3.88;;;3.00;;
43771;SDS011;59066;54.782;32.024;2022-09-21T14:00:35;4.60;;;3.20;;
43771;SDS011;59066;54.782;32.024;2022-09-21T14:03:16;4.10;;;3.25;;
43771;SDS011;59066;54.782;32.024;2022-09-21T14:06:27;6.13;;;3.55;;
43771;SDS011;59066;54.782;32.024;2022-09-21T14:30:38;4.68;;;3.40;;
43771;SDS011;59066;54.782;32.024;2022-09-21T14:33:51;5.55;;;3.42;;
43771;SDS011;59066;54.782;32.024;2022-09-21T14:36:25;4.15;;;2.97;;
43771;SDS011;59066;54.782;32.024;2022-09-21T14:39:00;3.92;;;2.63;;
43771;SDS011;59066;54.782;32.024;2022-09-21T14:41:31;3.42;;;2.63;;
43771;SDS011;59066;54.782;32.024;2022-09-21T14:44:16;6.07;;;3.20;;
43771;SDS011;59066;54.782;32.024;2022-09-21T15:01:58;4.30;;;3.28;;
43771;SDS011;59066;54.782;32.024;2022-09-21T15:08:08;4.50;;;3.10;;
43771;SDS011;59066;54.782;32.024;2022-09-21T15:16:51;6.32;;;4.25;;
43771;SDS011;59066;54.782;32.024;2022-09-21T15:19:28;6.78;;;6.07;;
43771;SDS011;59066;54.782;32.024;2022-09-21T15:22:16;2.85;;;2.58;;
43771;SDS011;59066;54.782;32.024;2022-09-21T15:24:52;7.28;;;5.03;;
43771;SDS011;59066;54.782;32.024;2022-09-21T15:27:23;5.45;;;3.75;;
43771;SDS011;59066;54.782;32.024;2022-09-21T15:29:54;6.40;;;3.53;;
43771;SDS011;59066;54.782;32.024;2022-09-21T15:32:38;3.25;;;2.25;;
43771;SDS011;59066;54.782;32.024;2022-09-21T15:35:23;3.90;;;2.55;;
43771;SDS011;59066;54.782;32.024;2022-09-21T15:37:54;2.47;;;2.08;;
43771;SDS011;59066;54.782;32.024;2022-09-21T15:40:24;6.60;;;4.32;;
43771;SDS011;59066;54.782;32.024;2022-09-21T15:43:03;3.33;;;2.70;;
43771;SDS011;59066;54.782;32.024;2022-09-21T15:45:34;3.42;;;2.22;;
43771;SDS011;59066;54.782;32.024;2022-09-21T15:48:25;5.55;;;2.22;;
43771;SDS011;59066;54.782;32.024;2022-09-21T15:54:07;3.38;;;2.70;;
43771;SDS011;59066;54.782;32.024;2022-09-21T15:56:42;4.77;;;2.30;;
43771;SDS011;59066;54.782;32.024;2022-09-21T15:59:15;4.22;;;2.50;;
43771;SDS011;59066;54.782;32.024;2022-09-21T16:01:51;7.00;;;5.65;;
43771;SDS011;59066;54.782;32.024;2022-09-21T16:04:37;3.13;;;2.47;;
43771;SDS011;59066;54.782;32.024;2022-09-21T16:13:00;9.23;;;7.38;;
43771;SDS011;59066;54.782;32.024;2022-09-21T16:16:03;3.22;;;2.45;;
43771;SDS011;59066;54.782;32.024;2022-09-21T16:21:15;2.75;;;1.98;;
43771;SDS011;59066;54.782;32.024;2022-09-21T16:23:48;2.70;;;2.33;;
43771;SDS011;59066;54.782;32.024;2022-09-21T16:26:18;3.97;;;2.58;;
43771;SDS011;59066;54.782;32.024;2022-09-21T16:28:48;2.55;;;2.15;;
43771;SDS011;59066;54.782;32.024;2022-09-21T16:31:28;4.18;;;2.42;;
43771;SDS011;59066;54.782;32.024;2022-09-21T16:33:58;2.90;;;2.05;;
43771;SDS011;59066;54.782;32.024;2022-09-21T16:39:00;2.45;;;2.15;;
43771;SDS011;59066;54.782;32.024;2022-09-21T16:41:39;3.22;;;2.10;;
43771;SDS011;59066;54.782;32.024;2022-09-21T16:44:16;5.47;;;2.50;;
43771;SDS011;59066;54.782;32.024;2022-09-21T16:47:04;3.05;;;2.30;;
43771;SDS011;59066;54.782;32.024;2022-09-21T16:52:53;2.83;;;2.33;;
43771;SDS011;59066;54.782;32.024;2022-09-21T16:55:21;2.47;;;1.95;;
43771;SDS011;59066;54.782;32.024;2022-09-21T16:57:53;2.38;;;2.17;;
43771;SDS011;59066;54.782;32.024;2022-09-21T17:00:21;3.15;;;2.70;;
43771;SDS011;59066;54.782;32.024;2022-09-21T17:03:14;3.10;;;2.13;;
43771;SDS011;59066;54.782;32.024;2022-09-21T17:06:00;5.73;;;4.00;;
43771;SDS011;59066;54.782;32.024;2022-09-21T17:08:29;2.75;;;2.38;;
43771;SDS011;59066;54.782;32.024;2022-09-21T17:10:58;2.85;;;2.30;;
43771;SDS011;59066;54.782;32.024;2022-09-21T17:13:29;3.85;;;2.40;;
43771;SDS011;59066;54.782;32.024;2022-09-21T17:15:57;3.42;;;2.60;;
43771;SDS011;59066;54.782;32.024;2022-09-21T17:18:25;2.53;;;2.20;;
43771;SDS011;59066;54.782;32.024;2022-09-21T17:20:55;2.33;;;2.10;;
43771;SDS011;59066;54.782;32.024;2022-09-21T17:23:22;2.28;;;2.08;;
43771;SDS011;59066;54.782;32.024;2022-09-21T17:26:12;3.05;;;2.00;;
43771;SDS011;59066;54.782;32.024;2022-09-21T17:28:43;3.05;;;1.90;;
43771;SDS011;59066;54.782;32.024;2022-09-21T17:31:11;3.60;;;2.30;;
43771;SDS011;59066;54.782;32.024;2022-09-21T17:33:55;3.50;;;2.85;;
43771;SDS011;59066;54.782;32.024;2022-09-21T17:36:23;2.17;;;1.98;;
43771;SDS011;59066;54.782;32.024;2022-09-21T17:38:50;4.22;;;1.80;;
43771;SDS011;59066;54.782;32.024;2022-09-21T17:46:34;2.22;;;1.77;;
43771;SDS011;59066;54.782;32.024;2022-09-21T17:49:09;2.95;;;2.10;;
43771;SDS011;59066;54.782;32.024;2022-09-21T17:51:40;2.15;;;1.70;;
43771;SDS011;59066;54.782;32.024;2022-09-21T17:54:26;2.33;;;1.77;;
43771;SDS011;59066;54.782;32.024;2022-09-21T17:59:46;2.15;;;1.95;;
43771;SDS011;59066;54.782;32.024;2022-09-21T18:02:47;2.72;;;1.80;;
43771;SDS011;59066;54.782;32.024;2022-09-21T18:07:49;1.90;;;1.70;;
43771;SDS011;59066;54.782;32.024;2022-09-21T18:10:21;4.88;;;1.50;;
43771;SDS011;59066;54.782;32.024;2022-09-21T18:21:04;3.92;;;1.85;;
43771;SDS011;59066;54.782;32.024;2022-09-21T18:26:56;2.53;;;1.83;;
43771;SDS011;59066;54.782;32.024;2022-09-21T18:29:29;2.95;;;1.60;;
43771;SDS011;59066;54.782;32.024;2022-09-21T18:37:53;2.55;;;2.10;;
43771;SDS011;59066;54.782;32.024;2022-09-21T18:40:56;2.20;;;2.00;;
43771;SDS011;59066;54.782;32.024;2022-09-21T18:49:51;2.40;;;1.95;;
43771;SDS011;59066;54.782;32.024;2022-09-21T18:55:16;2.25;;;1.80;;
43771;SDS011;59066;54.782;32.024;2022-09-21T18:57:55;1.60;;;1.50;;
43771;SDS011;59066;54.782;32.024;2022-09-21T19:00:23;2.28;;;1.95;;
43771;SDS011;59066;54.782;32.024;2022-09-21T19:02:57;4.60;;;2.65;;
43771;SDS011;59066;54.782;32.024;2022-09-21T19:05:55;2.10;;;1.73;;
43771;SDS011;59066;54.782;32.024;2022-09-21T19:08:48;2.83;;;2.10;;
43771;SDS011;59066;54.782;32.024;2022-09-21T19:11:28;3.47;;;1.90;;
43771;SDS011;59066;54.782;32.024;2022-09-21T19:14:05;2.88;;;1.63;;
43771;SDS011;59066;54.782;32.024;2022-09-21T19:16:41;2.00;;;1.75;;
43771;SDS011;59066;54.782;32.024;2022-09-21T19:19:31;1.98;;;1.75;;
43771;SDS011;59066;54.782;32.024;2022-09-21T19:22:28;2.70;;;1.67;;
43771;SDS011;59066;54.782;32.024;2022-09-21T19:27:59;3.38;;;2.00;;
43771;SDS011;59066;54.782;32.024;2022-09-21T19:30:42;1.95;;;1.75;;
43771;SDS011;59066;54.782;32.024;2022-09-21T19:33:23;2.45;;;1.70;;
43771;SDS011;59066;54.782;32.024;2022-09-21T19:36:14;4.35;;;1.88;;
43771;SDS011;59066;54.782;32.024;2022-09-21T19:38:42;3.90;;;2.13;;
43771;SDS011;59066;54.782;32.024;2022-09-21T19:43:41;2.35;;;1.98;;
43771;SDS011;59066;54.782;32.024;2022-09-21T19:46:30;2.10;;;1.90;;
43771;SDS011;59066;54.782;32.024;2022-09-21T19:49:15;2.35;;;1.85;;
43771;SDS011;59066;54.782;32.024;2022-09-21T19:54:19;3.05;;;2.00;;
43771;SDS011;59066;54.782;32.024;2022-09-21T19:57:17;2.88;;;1.90;;
43771;SDS011;59066;54.782;32.024;2022-09-21T20:03:04;3.60;;;2.50;;
43771;SDS011;59066;54.782;32.024;2022-09-21T20:09:02;4.40;;;2.00;;
43771;SDS011;59066;54.782;32.024;2022-09-21T20:14:35;2.63;;;1.95;;
43771;SDS011;59066;54.782;32.024;2022-09-21T20:17:15;3.60;;;2.25;;
43771;SDS011;59066;54.782;32.024;2022-09-21T20:22:42;4.20;;;2.08;;